Albertson, New York
Current Conditions -  °F | °C
As of 6:51 AM on Friday 31 Oct 2014 (Local Time) from KJFK Reporting Station
Broken Clouds Broken Clouds  
Wind Chill: 44°   Ceiling: 4600
Heat Index: 47°   Visibility: 10mi
Dew Point: 34°   Wind: 6mph
Humidity: 61%   Direction: 10°N
Pressure: 30.02"   Gusts: NA
Location:  40.77°N, 73.65°W
Report Text: KJFK 311051Z 01005KT 10SM BKN046 08/01 A3002 RMK AO2 SLP165 T00830011
Loading
Personal Weather Stations






























Interactive Weather Map
Tropical Storm Tracking
New forecast layout! Learn more

10-Day Weather Forecast

Advertisements
Track Severe Weather on mobile